createdAt,value
2019-03-27T00:01:16.388Z,100739.01
2019-03-27T00:03:47.694Z,100731.42
2019-03-27T00:06:19.042Z,100727.78
2019-03-27T00:08:50.107Z,100718.23
2019-03-27T00:11:21.267Z,100722.70
2019-03-27T00:13:52.563Z,100720.59
2019-03-27T00:16:23.656Z,100722.89
2019-03-27T00:18:54.781Z,100722.54
2019-03-27T00:21:27.792Z,100726.55
2019-03-27T00:23:58.933Z,100727.80
2019-03-27T00:26:30.533Z,100722.77
2019-03-27T00:29:01.699Z,100718.00
2019-03-27T00:31:32.902Z,100713.50
2019-03-27T00:34:04.095Z,100709.92
2019-03-27T00:36:37.805Z,100709.92
2019-03-27T00:39:09.036Z,100708.66
2019-03-27T00:41:40.194Z,100722.30
2019-03-27T00:44:11.232Z,100728.69
2019-03-27T00:46:43.798Z,100725.14
2019-03-27T00:49:15.822Z,100717.52
2019-03-27T00:51:46.927Z,100715.83
2019-03-27T00:54:18.143Z,100719.86
2019-03-27T00:56:49.532Z,100719.58
2019-03-27T00:59:22.340Z,100711.83
2019-03-27T01:01:53.439Z,100701.02
2019-03-27T01:04:33.347Z,100699.13
2019-03-27T01:07:03.797Z,100697.42
2019-03-27T01:09:36.835Z,100708.59
2019-03-27T01:12:08.072Z,100702.91
2019-03-27T01:14:39.266Z,100706.27
2019-03-27T01:17:10.529Z,100699.34
2019-03-27T01:19:41.757Z,100707.05
2019-03-27T01:22:12.932Z,100705.80
2019-03-27T01:24:44.461Z,100707.52
2019-03-27T01:27:15.703Z,100705.52
2019-03-27T01:29:46.881Z,100701.97
2019-03-27T01:32:18.231Z,100703.91
2019-03-27T01:34:49.458Z,100709.25
2019-03-27T01:37:20.827Z,100699.60
2019-03-27T01:39:52.315Z,100708.77
2019-03-27T01:42:23.524Z,100703.16
2019-03-27T01:44:54.583Z,100698.19
2019-03-27T01:47:25.707Z,100702.52
2019-03-27T01:49:56.942Z,100698.77
2019-03-27T01:52:28.101Z,100704.73
2019-03-27T01:54:59.254Z,100706.23
2019-03-27T01:57:30.450Z,100703.97
2019-03-27T02:00:01.521Z,100708.02
2019-03-27T02:02:34.424Z,100703.91
2019-03-27T02:05:10.494Z,100707.72
2019-03-27T02:07:41.606Z,100713.84
2019-03-27T02:10:13.792Z,100715.80
2019-03-27T02:12:45.038Z,100714.73
2019-03-27T02:15:16.199Z,100718.02
2019-03-27T02:17:47.290Z,100715.56
2019-03-27T02:20:18.488Z,100718.34
2019-03-27T02:22:49.739Z,100723.88
2019-03-27T02:25:22.065Z,100718.52
2019-03-27T02:27:53.313Z,100716.23
2019-03-27T02:30:24.567Z,100717.28
2019-03-27T02:32:55.632Z,100713.92
2019-03-27T02:35:26.693Z,100715.14
2019-03-27T02:37:57.703Z,100708.48
2019-03-27T02:40:28.855Z,100719.80
2019-03-27T02:43:00.089Z,100719.88
2019-03-27T02:45:31.363Z,100718.45
2019-03-27T02:48:02.568Z,100718.80
2019-03-27T02:50:33.741Z,100726.92
2019-03-27T02:53:04.934Z,100721.86
2019-03-27T02:55:36.146Z,100727.12
2019-03-27T02:58:07.577Z,100732.45
2019-03-27T03:00:38.823Z,100729.77
2019-03-27T03:03:10.008Z,100722.55
2019-03-27T03:05:41.078Z,100719.81
2019-03-27T03:08:12.159Z,100723.80
2019-03-27T03:10:45.950Z,100725.78
2019-03-27T03:13:16.374Z,100729.60
2019-03-27T03:15:47.456Z,100726.20
2019-03-27T03:18:18.589Z,100722.95
2019-03-27T03:20:49.650Z,100725.67
2019-03-27T03:23:20.656Z,100723.91
2019-03-27T03:25:51.948Z,100727.20
2019-03-27T03:28:23.071Z,100726.41
2019-03-27T03:30:55.182Z,100726.41
2019-03-27T03:33:26.418Z,100732.33
2019-03-27T03:35:57.594Z,100732.12
2019-03-27T03:38:28.659Z,100731.47
2019-03-27T03:40:59.790Z,100738.31
2019-03-27T03:43:30.950Z,100734.61
2019-03-27T03:46:02.121Z,100736.30
2019-03-27T03:48:35.656Z,100741.55
2019-03-27T03:51:06.818Z,100739.95
2019-03-27T03:53:38.126Z,100746.84
2019-03-27T03:56:11.237Z,100748.55
2019-03-27T03:58:42.418Z,100745.77
2019-03-27T04:01:13.596Z,100750.27
2019-03-27T04:03:44.914Z,100746.50
2019-03-27T04:06:16.157Z,100751.23
2019-03-27T04:08:47.172Z,100752.42
2019-03-27T04:11:18.297Z,100750.70
2019-03-27T04:13:49.621Z,100757.20
2019-03-27T04:16:21.051Z,100758.91
2019-03-27T04:18:52.202Z,100755.08
2019-03-27T04:21:26.780Z,100754.22
2019-03-27T04:23:56.170Z,100756.69
2019-03-27T04:26:33.244Z,100755.33
2019-03-27T04:29:01.783Z,100759.48
2019-03-27T04:31:33.003Z,100756.84
2019-03-27T04:34:04.085Z,100752.30
2019-03-27T04:36:35.431Z,100748.75
2019-03-27T04:39:06.494Z,100752.64
2019-03-27T04:41:37.640Z,100752.87
2019-03-27T04:44:08.668Z,100756.63
2019-03-27T04:46:39.783Z,100755.08
2019-03-27T04:49:10.804Z,100753.02
2019-03-27T04:51:41.787Z,100745.75
2019-03-27T04:54:13.031Z,100748.37
2019-03-27T04:56:53.328Z,100745.67
2019-03-27T04:59:24.363Z,100741.36
2019-03-27T05:01:55.664Z,100754.06
2019-03-27T05:04:27.418Z,100753.61
2019-03-27T05:06:58.581Z,100750.23
2019-03-27T05:09:29.747Z,100755.67
2019-03-27T05:12:01.919Z,100762.43
2019-03-27T05:14:32.950Z,100759.25
2019-03-27T05:17:05.210Z,100761.47
2019-03-27T05:19:36.376Z,100757.83
2019-03-27T05:22:07.413Z,100756.28
2019-03-27T05:24:38.428Z,100763.69
2019-03-27T05:27:09.418Z,100762.59
2019-03-27T05:29:40.835Z,100756.47
2019-03-27T05:32:12.066Z,100758.00
2019-03-27T05:34:43.265Z,100758.27
2019-03-27T05:37:14.466Z,100756.88
2019-03-27T05:39:45.564Z,100752.52
2019-03-27T05:42:18.203Z,100747.30
2019-03-27T05:44:49.251Z,100752.33
2019-03-27T05:47:20.484Z,100758.87
2019-03-27T05:49:51.724Z,100756.83
2019-03-27T05:52:22.979Z,100759.55
2019-03-27T05:54:54.078Z,100753.66
2019-03-27T05:57:25.151Z,100760.52
2019-03-27T05:59:56.551Z,100757.46
2019-03-27T06:02:27.615Z,100753.40
2019-03-27T06:04:59.002Z,100754.38
2019-03-27T06:07:30.134Z,100753.73
2019-03-27T06:10:01.230Z,100757.31
2019-03-27T06:12:32.449Z,100756.31
2019-03-27T06:15:06.583Z,100752.22
2019-03-27T06:17:39.361Z,100744.79
2019-03-27T06:20:10.555Z,100744.47
2019-03-27T06:22:41.659Z,100746.17
2019-03-27T06:25:12.858Z,100748.20
2019-03-27T06:27:44.015Z,100747.12
2019-03-27T06:30:17.996Z,100756.83
2019-03-27T06:32:49.091Z,100751.61
2019-03-27T06:35:20.438Z,100749.30
2019-03-27T06:37:51.624Z,100747.65
2019-03-27T06:40:22.912Z,100753.44
2019-03-27T06:42:54.041Z,100748.37
2019-03-27T06:45:25.214Z,100749.81
2019-03-27T06:47:56.555Z,100745.36
2019-03-27T06:50:27.637Z,100729.95
2019-03-27T06:52:58.656Z,100746.59
2019-03-27T06:55:29.690Z,100735.67
2019-03-27T06:58:01.113Z,100751.32
2019-03-27T07:00:36.664Z,100748.33
2019-03-27T07:03:08.150Z,100751.46
2019-03-27T07:05:39.381Z,100753.60
2019-03-27T07:08:10.460Z,100755.64
2019-03-27T07:10:42.466Z,100752.86
2019-03-27T07:13:13.616Z,100753.42
2019-03-27T07:15:44.819Z,100755.25
2019-03-27T07:18:16.150Z,100754.02
2019-03-27T07:20:47.365Z,100754.77
2019-03-27T07:23:18.483Z,100751.58
2019-03-27T07:25:49.675Z,100758.83
2019-03-27T07:28:21.009Z,100760.81
2019-03-27T07:30:52.000Z,100758.97
2019-03-27T07:33:23.071Z,100767.58
2019-03-27T07:35:55.269Z,100760.79
2019-03-27T07:38:27.966Z,100757.59
2019-03-27T07:40:58.978Z,100770.28
2019-03-27T07:43:29.993Z,100762.99
2019-03-27T07:46:01.158Z,100752.00
2019-03-27T07:48:32.475Z,100759.84
2019-03-27T07:51:03.428Z,100765.76
2019-03-27T07:53:34.502Z,100756.66
2019-03-27T07:56:06.822Z,100768.08
2019-03-27T07:58:37.974Z,100763.94
2019-03-27T08:01:11.015Z,100767.75
2019-03-27T08:03:42.119Z,100758.48
2019-03-27T08:06:13.226Z,100758.69
2019-03-27T08:08:44.201Z,100754.99
2019-03-27T08:11:15.283Z,100752.11
2019-03-27T08:13:46.217Z,100750.42
2019-03-27T08:16:17.509Z,100749.97
2019-03-27T08:18:48.460Z,100744.75
2019-03-27T08:21:23.267Z,100746.20
2019-03-27T08:23:54.342Z,100746.67
2019-03-27T08:26:25.729Z,100745.67
2019-03-27T08:28:57.325Z,100751.72
2019-03-27T08:31:28.419Z,100752.89
2019-03-27T08:33:59.540Z,100751.93
2019-03-27T08:36:30.977Z,100756.61
2019-03-27T08:39:03.415Z,100754.74
2019-03-27T08:41:35.867Z,100758.19
2019-03-27T08:44:09.921Z,100757.45
2019-03-27T08:46:41.025Z,100759.69
2019-03-27T08:49:21.778Z,100769.89
2019-03-27T08:51:44.832Z,100761.60
2019-03-27T08:54:16.163Z,100753.49
2019-03-27T08:56:47.287Z,100754.17
2019-03-27T08:59:18.435Z,100764.77
2019-03-27T09:01:49.659Z,100766.63
2019-03-27T09:04:20.730Z,100756.63
2019-03-27T09:06:51.653Z,100762.27
2019-03-27T09:09:23.075Z,100756.99
2019-03-27T09:11:54.075Z,100756.88
2019-03-27T09:14:25.251Z,100755.06
2019-03-27T09:16:56.285Z,100753.38
2019-03-27T09:19:35.548Z,100749.13
2019-03-27T09:22:02.746Z,100751.30
2019-03-27T09:24:33.804Z,100759.49
2019-03-27T09:27:04.760Z,100766.69
2019-03-27T09:29:35.775Z,100760.93
2019-03-27T09:32:06.824Z,100769.82
2019-03-27T09:34:37.970Z,100770.95
2019-03-27T09:37:09.092Z,100759.51
2019-03-27T09:39:40.200Z,100757.12
2019-03-27T09:42:11.201Z,100755.65
2019-03-27T09:44:42.253Z,100752.00
2019-03-27T09:47:13.477Z,100751.23
2019-03-27T09:49:49.823Z,100747.23
2019-03-27T09:52:17.620Z,100751.23
2019-03-27T09:54:48.950Z,100745.70
2019-03-27T09:57:20.318Z,100745.92
2019-03-27T09:59:54.098Z,100749.58
2019-03-27T10:02:25.022Z,100738.61
2019-03-27T10:04:56.208Z,100740.69
2019-03-27T10:07:27.170Z,100741.80
2019-03-27T10:09:58.489Z,100748.64
2019-03-27T10:12:29.784Z,100745.78
2019-03-27T10:15:00.785Z,100736.59
2019-03-27T10:17:31.808Z,100736.47
2019-03-27T10:20:04.065Z,100735.05
2019-03-27T10:22:37.234Z,100731.11
2019-03-27T10:25:08.487Z,100741.27
2019-03-27T10:27:43.129Z,100738.64
2019-03-27T10:30:15.481Z,100736.00
2019-03-27T10:32:46.317Z,100738.00
2019-03-27T10:35:17.402Z,100733.28
2019-03-27T10:37:48.417Z,100733.27
2019-03-27T10:40:19.493Z,100727.00
2019-03-27T10:42:50.493Z,100726.03
2019-03-27T10:45:21.765Z,100717.16
2019-03-27T10:47:52.886Z,100719.72
2019-03-27T10:50:24.052Z,100714.03
2019-03-27T10:52:55.265Z,100718.45
2019-03-27T10:55:29.326Z,100704.81
2019-03-27T10:58:00.549Z,100710.31
2019-03-27T11:00:32.456Z,100712.17
2019-03-27T11:03:03.616Z,100707.28
2019-03-27T11:05:38.352Z,100704.47
2019-03-27T11:08:11.738Z,100703.44
2019-03-27T11:10:44.976Z,100702.92
2019-03-27T11:13:18.158Z,100708.42
2019-03-27T11:15:49.611Z,100707.54
2019-03-27T11:18:21.989Z,100708.78
2019-03-27T11:20:53.295Z,100701.50
2019-03-27T11:23:25.283Z,100700.51
2019-03-27T11:25:56.359Z,100704.17
2019-03-27T11:28:27.344Z,100699.40
2019-03-27T11:30:58.354Z,100708.21
2019-03-27T11:33:29.568Z,100698.32
2019-03-27T11:36:00.625Z,100699.84
2019-03-27T11:38:31.744Z,100695.95
2019-03-27T11:41:04.716Z,100700.39
2019-03-27T11:43:35.747Z,100692.79
2019-03-27T11:46:06.882Z,100690.97
2019-03-27T11:48:37.923Z,100699.27
2019-03-27T11:51:09.105Z,100700.59
2019-03-27T11:53:40.393Z,100689.56
2019-03-27T11:56:11.591Z,100696.07
2019-03-27T11:58:42.860Z,100690.91
2019-03-27T12:01:13.942Z,100700.67
2019-03-27T12:03:45.050Z,100695.20
2019-03-27T12:06:17.840Z,100692.72
2019-03-27T12:08:50.985Z,100685.09
2019-03-27T12:11:22.315Z,100696.28
2019-03-27T12:13:53.436Z,100692.34
2019-03-27T12:16:24.665Z,100702.10
2019-03-27T12:18:55.740Z,100707.41
2019-03-27T12:21:26.736Z,100704.76
2019-03-27T12:23:57.922Z,100720.61
2019-03-27T12:26:29.145Z,100717.07
2019-03-27T12:29:00.209Z,100718.17
2019-03-27T12:31:31.363Z,100727.12
2019-03-27T12:34:02.537Z,100734.47
2019-03-27T12:36:33.747Z,100761.23
2019-03-27T12:39:06.667Z,100768.55
2019-03-27T12:41:38.731Z,100765.27
2019-03-27T12:44:09.928Z,100777.24
2019-03-27T12:46:42.342Z,100778.09
2019-03-27T12:49:13.459Z,100768.48
2019-03-27T12:51:44.634Z,100765.64
2019-03-27T12:54:15.714Z,100778.93
2019-03-27T12:56:46.823Z,100780.92
2019-03-27T12:59:17.772Z,100777.44
2019-03-27T13:01:52.500Z,100782.23
2019-03-27T13:04:23.748Z,100785.49
2019-03-27T13:06:55.060Z,100776.88
2019-03-27T13:09:26.146Z,100784.16
2019-03-27T13:11:58.220Z,100786.40
2019-03-27T13:14:29.385Z,100787.20
2019-03-27T13:17:00.515Z,100795.19
2019-03-27T13:19:31.714Z,100811.64
2019-03-27T13:22:02.810Z,100796.09
2019-03-27T13:24:33.938Z,100798.59
2019-03-27T13:27:05.604Z,100805.81
2019-03-27T13:29:36.648Z,100808.95
2019-03-27T13:32:07.786Z,100816.82
2019-03-27T13:34:38.792Z,100814.70
2019-03-27T13:37:09.921Z,100812.69
2019-03-27T13:39:41.166Z,100814.98
2019-03-27T13:42:13.198Z,100816.30
2019-03-27T13:44:44.437Z,100817.16
2019-03-27T13:47:15.547Z,100810.50
2019-03-27T13:49:46.790Z,100817.75
2019-03-27T13:52:17.929Z,100820.22
2019-03-27T13:54:49.156Z,100819.10
2019-03-27T13:57:20.245Z,100822.53
2019-03-27T13:59:51.457Z,100817.08
2019-03-27T14:02:22.460Z,100824.13
2019-03-27T14:04:53.683Z,100819.95
2019-03-27T14:07:27.582Z,100823.08
2019-03-27T14:09:58.738Z,100821.81
2019-03-27T14:12:30.113Z,100825.64
2019-03-27T14:15:01.801Z,100833.63
2019-03-27T14:17:33.556Z,100828.12
2019-03-27T14:20:06.625Z,100831.11
2019-03-27T14:22:38.738Z,100829.94
2019-03-27T14:25:09.912Z,100834.13
2019-03-27T14:27:41.288Z,100840.62
2019-03-27T14:30:17.002Z,100832.50
2019-03-27T14:32:50.380Z,100836.78
2019-03-27T14:35:21.444Z,100843.77
2019-03-27T14:37:52.433Z,100840.70
2019-03-27T14:40:23.586Z,100844.98
2019-03-27T14:42:56.773Z,100848.45
2019-03-27T14:45:28.127Z,100851.10
2019-03-27T14:48:01.090Z,100856.95
2019-03-27T14:50:32.209Z,100865.14
2019-03-27T14:53:04.256Z,100861.41
2019-03-27T14:55:35.487Z,100866.11
2019-03-27T14:58:06.810Z,100871.19
2019-03-27T15:00:39.520Z,100863.72
2019-03-27T15:03:10.647Z,100867.11
2019-03-27T15:05:41.809Z,100876.48
2019-03-27T15:08:13.061Z,100874.45
2019-03-27T15:10:44.077Z,100874.08
2019-03-27T15:13:25.547Z,100866.99
2019-03-27T15:15:56.871Z,100878.59
2019-03-27T15:18:28.072Z,100885.41
2019-03-27T15:20:59.238Z,100885.31
2019-03-27T15:23:30.465Z,100885.96
2019-03-27T15:26:01.652Z,100887.20
2019-03-27T15:28:32.856Z,100886.29
2019-03-27T15:31:03.999Z,100896.38
2019-03-27T15:33:35.081Z,100884.82
2019-03-27T15:36:06.082Z,100896.12
2019-03-27T15:38:37.283Z,100898.86
2019-03-27T15:41:08.445Z,100901.61
2019-03-27T15:43:39.598Z,100899.17
2019-03-27T15:46:10.771Z,100903.16
2019-03-27T15:48:41.822Z,100902.37
2019-03-27T15:51:12.864Z,100906.80
2019-03-27T15:53:47.319Z,100905.14
2019-03-27T15:56:18.307Z,100913.94
2019-03-27T15:58:49.300Z,100912.50
2019-03-27T16:01:20.305Z,100912.61
2019-03-27T16:03:51.467Z,100910.74
2019-03-27T16:06:22.497Z,100918.56
2019-03-27T16:08:53.627Z,100925.93
2019-03-27T16:11:25.731Z,100924.69
2019-03-27T16:13:56.957Z,100924.76
2019-03-27T16:16:28.003Z,100919.19
2019-03-27T16:18:59.189Z,100928.36
2019-03-27T16:21:30.357Z,100933.19
2019-03-27T16:24:06.542Z,100940.09
2019-03-27T16:26:34.321Z,100936.59
2019-03-27T16:29:05.442Z,100943.03
2019-03-27T16:31:36.575Z,100942.17
2019-03-27T16:34:07.657Z,100952.11
2019-03-27T16:36:38.699Z,100951.38
2019-03-27T16:39:09.933Z,100962.64
2019-03-27T16:41:41.014Z,100959.63
2019-03-27T16:44:12.054Z,100968.69
2019-03-27T16:46:43.195Z,100968.33
2019-03-27T16:49:14.409Z,100967.41
2019-03-27T16:51:45.574Z,100970.02
2019-03-27T16:54:16.769Z,100973.86
2019-03-27T16:56:47.828Z,100983.09
2019-03-27T16:59:18.857Z,100980.55
2019-03-27T17:01:49.957Z,100981.44
2019-03-27T17:04:21.422Z,100983.14
2019-03-27T17:06:52.776Z,100992.69
2019-03-27T17:09:23.784Z,100990.09
2019-03-27T17:11:54.819Z,100992.69
2019-03-27T17:14:25.897Z,100995.24
2019-03-27T17:16:56.964Z,100997.01
2019-03-27T17:19:28.213Z,101004.39
2019-03-27T17:21:59.290Z,101004.84
2019-03-27T17:24:30.534Z,101006.14
2019-03-27T17:27:01.931Z,101007.88
2019-03-27T17:29:33.202Z,101007.41
2019-03-27T17:32:04.580Z,101006.13
2019-03-27T17:34:35.765Z,101006.16
2019-03-27T17:37:09.050Z,101010.01
2019-03-27T17:39:40.434Z,101005.66
2019-03-27T17:42:11.830Z,101007.39
2019-03-27T17:44:42.953Z,101007.45
2019-03-27T17:47:14.092Z,101008.70
2019-03-27T17:49:45.594Z,101014.29
2019-03-27T17:52:16.728Z,101014.29
2019-03-27T17:54:47.807Z,101009.13
2019-03-27T17:57:18.895Z,101010.39
2019-03-27T17:59:50.156Z,101013.02
2019-03-27T18:02:21.271Z,101006.95
2019-03-27T18:04:52.459Z,101015.59
2019-03-27T18:07:23.990Z,101018.15
2019-03-27T18:09:55.038Z,101016.42
2019-03-27T18:12:28.782Z,101011.19
2019-03-27T18:15:00.151Z,101018.98
2019-03-27T18:17:31.379Z,101016.85
2019-03-27T18:20:02.533Z,101018.15
2019-03-27T18:22:33.824Z,101011.71
2019-03-27T18:25:06.316Z,101012.97
2019-03-27T18:27:37.396Z,101013.41
2019-03-27T18:30:08.523Z,101011.64
2019-03-27T18:32:39.811Z,101015.92
2019-03-27T18:35:11.195Z,101018.98
2019-03-27T18:37:42.363Z,101009.86
2019-03-27T18:40:13.459Z,101016.78
2019-03-27T18:42:44.649Z,101019.83
2019-03-27T18:45:15.768Z,101022.87
2019-03-27T18:47:47.082Z,101017.25
2019-03-27T18:50:18.290Z,101016.34
2019-03-27T18:52:49.406Z,101016.66
2019-03-27T18:55:26.472Z,101017.92
2019-03-27T18:57:59.972Z,101025.69
2019-03-27T19:00:26.778Z,101022.68
2019-03-27T19:02:58.180Z,101029.10
2019-03-27T19:05:30.265Z,101032.63
2019-03-27T19:08:01.308Z,101024.39
2019-03-27T19:10:32.467Z,101029.54
2019-03-27T19:13:03.491Z,101039.91
2019-03-27T19:15:35.736Z,101033.48
2019-03-27T19:18:06.778Z,101032.14
2019-03-27T19:20:37.863Z,101034.73
2019-03-27T19:23:08.885Z,101036.02
2019-03-27T19:25:43.032Z,101035.55
2019-03-27T19:28:14.141Z,101033.81
2019-03-27T19:30:45.452Z,101043.74
2019-03-27T19:33:17.757Z,101042.88
2019-03-27T19:35:49.042Z,101043.36
2019-03-27T19:38:20.199Z,101033.77
2019-03-27T19:40:52.392Z,101044.09
2019-03-27T19:43:23.565Z,101048.86
2019-03-27T19:45:57.384Z,101051.46
2019-03-27T19:48:27.590Z,101054.39
2019-03-27T19:50:58.712Z,101057.01
2019-03-27T19:53:29.900Z,101053.91
2019-03-27T19:56:01.171Z,101060.87
2019-03-27T19:58:33.508Z,101056.97
2019-03-27T20:01:05.619Z,101069.58
2019-03-27T20:03:38.040Z,101073.00
2019-03-27T20:06:09.348Z,101073.47
2019-03-27T20:08:40.545Z,101079.99
2019-03-27T20:11:11.876Z,101079.09
2019-03-27T20:13:43.022Z,101081.66
2019-03-27T20:16:14.227Z,101085.13
2019-03-27T20:18:45.340Z,101094.72
2019-03-27T20:21:16.384Z,101093.39
2019-03-27T20:23:47.520Z,101094.30
2019-03-27T20:26:18.703Z,101099.84
2019-03-27T20:28:49.856Z,101095.08
2019-03-27T20:31:21.152Z,101106.72
2019-03-27T20:33:52.255Z,101101.08
2019-03-27T20:36:27.895Z,101101.02
2019-03-27T20:38:59.479Z,101102.31
2019-03-27T20:41:30.535Z,101107.97
2019-03-27T20:44:01.951Z,101104.52
2019-03-27T20:46:33.188Z,101105.85
2019-03-27T20:49:04.449Z,101111.98
2019-03-27T20:51:36.164Z,101114.58
2019-03-27T20:54:07.263Z,101119.38
2019-03-27T20:56:39.496Z,101123.71
2019-03-27T20:59:18.154Z,101136.78
2019-03-27T21:01:47.895Z,101136.31
2019-03-27T21:04:20.824Z,101132.40
2019-03-27T21:06:52.251Z,101131.91
2019-03-27T21:09:23.450Z,101133.68
2019-03-27T21:11:56.142Z,101139.70
2019-03-27T21:14:27.607Z,101144.86
2019-03-27T21:16:58.724Z,101143.12
2019-03-27T21:19:29.753Z,101146.19
2019-03-27T21:22:00.996Z,101146.09
2019-03-27T21:24:32.092Z,101139.04
2019-03-27T21:27:03.130Z,101145.08
2019-03-27T21:29:34.301Z,101146.83
2019-03-27T21:32:05.405Z,101149.48
2019-03-27T21:34:36.468Z,101144.33
2019-03-27T21:37:08.467Z,101147.83
2019-03-27T21:39:39.489Z,101146.09
2019-03-27T21:42:11.686Z,101157.36
2019-03-27T21:44:45.092Z,101159.04
2019-03-27T21:47:16.317Z,101161.69
2019-03-27T21:49:47.360Z,101173.42
2019-03-27T21:52:18.561Z,101167.86
2019-03-27T21:54:49.929Z,101174.83
2019-03-27T21:57:21.041Z,101176.13
2019-03-27T21:59:53.378Z,101173.13
2019-03-27T22:02:25.856Z,101177.88
2019-03-27T22:04:57.946Z,101181.31
2019-03-27T22:07:29.048Z,101179.20
2019-03-27T22:10:00.398Z,101181.41
2019-03-27T22:12:31.645Z,101186.97
2019-03-27T22:15:02.688Z,101175.33
2019-03-27T22:17:33.930Z,101185.73
2019-03-27T22:20:06.877Z,101187.42
2019-03-27T22:22:38.218Z,101183.98
2019-03-27T22:25:10.398Z,101189.25
2019-03-27T22:27:41.436Z,101194.88
2019-03-27T22:30:12.821Z,101199.27
2019-03-27T22:32:43.980Z,101208.33
2019-03-27T22:35:15.074Z,101212.28
2019-03-27T22:37:46.258Z,101209.78
2019-03-27T22:40:17.434Z,101219.80
2019-03-27T22:42:48.725Z,101220.23
2019-03-27T22:45:20.916Z,101221.94
2019-03-27T22:47:52.000Z,101226.75
2019-03-27T22:50:23.235Z,101225.89
2019-03-27T22:52:54.382Z,101224.20
2019-03-27T22:55:25.471Z,101231.59
2019-03-27T22:57:56.573Z,101223.33
2019-03-27T23:00:45.307Z,101231.13
2019-03-27T23:03:18.606Z,101234.58
2019-03-27T23:05:49.926Z,101228.09
2019-03-27T23:08:22.066Z,101239.37
2019-03-27T23:10:53.406Z,101238.52
2019-03-27T23:13:24.512Z,101240.72
2019-03-27T23:15:55.597Z,101239.88
2019-03-27T23:18:30.507Z,101250.30
2019-03-27T23:21:01.557Z,101241.16
2019-03-27T23:23:32.606Z,101246.84
2019-03-27T23:26:04.024Z,101245.12
2019-03-27T23:28:35.138Z,101242.94
2019-03-27T23:31:06.134Z,101245.55
2019-03-27T23:33:37.272Z,101243.37
2019-03-27T23:36:08.380Z,101255.06
2019-03-27T23:38:39.697Z,101255.94
2019-03-27T23:41:10.893Z,101259.88
2019-03-27T23:43:43.087Z,101262.51
2019-03-27T23:46:14.301Z,101263.81
2019-03-27T23:48:49.906Z,101265.58
2019-03-27T23:51:20.890Z,101270.83
2019-03-27T23:53:51.932Z,101274.31
2019-03-27T23:56:23.167Z,101272.55
2019-03-27T23:59:00.286Z,101270.34
